Time;durP1;ratioP1;P1;durP2;ratioP2;P2;SDS_P1;SDS_P2;PMS_P1;PMS_P2;Temp;Humidity;BMP_temperature;BMP_pressure;BME280_temperature;BME280_humidity;BME280_pressure;Samples;Min_cycle;Max_cycle;Signal;HPM_P1;HPM_P2
2021/10/18 00:01:14;;;;;;;16.33;12.60;;;;;;;10.86;64.48;100839.38;4953203;28;97578;-76
2021/10/18 00:03:40;;;;;;;16.58;13.02;;;;;;;10.86;64.69;100849.88;4953599;28;97273;-77
2021/10/18 00:06:06;;;;;;;15.95;13.13;;;;;;;10.80;64.96;100836.91;4953358;28;101170;-76
2021/10/18 00:08:31;;;;;;;17.98;13.10;;;;;;;10.80;65.83;100842.16;4951938;28;100371;-76
2021/10/18 00:10:57;;;;;;;20.42;14.00;;;;;;;10.77;66.12;100844.88;4954531;28;97113;-76
2021/10/18 00:13:22;;;;;;;20.52;13.32;;;;;;;10.71;66.95;100839.78;4953262;28;97193;-76
2021/10/18 00:15:48;;;;;;;14.43;12.30;;;;;;;10.78;66.82;100851.84;4952976;28;97968;-77
2021/10/18 00:18:14;;;;;;;19.67;13.25;;;;;;;10.75;67.28;100848.44;4937156;28;100139;-76
2021/10/18 00:20:40;;;;;;;19.33;12.48;;;;;;;10.69;67.87;100846.81;4920033;28;97413;-76
2021/10/18 00:23:05;;;;;;;24.98;13.48;;;;;;;10.70;68.51;100848.53;4953320;28;96911;-76
2021/10/18 00:25:31;;;;;;;18.83;13.13;;;;;;;10.63;68.90;100842.59;4952086;28;97587;-77
2021/10/18 00:27:56;;;;;;;17.98;13.35;;;;;;;10.67;69.12;100847.78;4954491;28;97385;-76
2021/10/18 00:30:22;;;;;;;25.48;13.98;;;;;;;10.60;69.66;100847.94;4951807;28;96919;-76
2021/10/18 00:32:48;;;;;;;20.50;13.30;;;;;;;10.59;69.89;100847.97;4949246;28;97215;-76
2021/10/18 00:35:13;;;;;;;19.33;13.82;;;;;;;10.57;70.30;100842.75;4952872;28;97469;-77
2021/10/18 00:37:40;;;;;;;19.48;13.25;;;;;;;10.60;70.08;100847.06;4952178;28;97600;-76
2021/10/18 00:40:06;;;;;;;16.55;13.88;;;;;;;10.59;70.71;100845.34;4920820;28;96749;-76
2021/10/18 00:42:32;;;;;;;17.65;13.18;;;;;;;10.62;70.62;100851.38;4952683;28;96954;-77
2021/10/18 00:44:58;;;;;;;20.90;14.05;;;;;;;10.61;70.63;100848.78;4920101;28;101343;-76
2021/10/18 00:47:23;;;;;;;18.15;13.02;;;;;;;10.62;71.17;100847.91;4952360;28;97444;-76
2021/10/18 00:49:49;;;;;;;16.27;12.82;;;;;;;10.57;71.15;100848.00;4968410;28;96877;-76
2021/10/18 00:52:17;;;;;;;18.35;14.70;;;;;;;10.63;70.81;100847.84;4936299;28;96865;-76
2021/10/18 00:54:45;;;;;;;16.52;14.73;;;;;;;10.63;70.90;100847.84;4951266;28;101076;-76
2021/10/18 00:57:10;;;;;;;17.58;13.63;;;;;;;10.57;71.69;100849.78;4936517;28;100277;-76
2021/10/18 00:59:36;;;;;;;16.48;13.95;;;;;;;10.58;71.60;100854.97;4968111;28;97280;-76
2021/10/18 01:02:02;;;;;;;19.50;14.57;;;;;;;10.56;71.52;100854.19;4936265;28;97595;-76
2021/10/18 01:04:27;;;;;;;18.15;14.55;;;;;;;10.57;71.63;100855.03;4935546;28;98537;-76
2021/10/18 01:06:54;;;;;;;16.83;15.02;;;;;;;10.54;71.71;100849.84;4936088;28;101564;-76
2021/10/18 01:09:20;;;;;;;21.98;14.68;;;;;;;10.55;72.14;100848.94;4936729;28;96984;-76
2021/10/18 01:11:45;;;;;;;17.90;13.55;;;;;;;10.53;72.27;100851.63;4935284;28;97314;-76
2021/10/18 01:14:11;;;;;;;17.38;13.63;;;;;;;10.54;71.73;100853.34;4935064;28;101312;-77
2021/10/18 01:16:36;;;;;;;21.27;15.15;;;;;;;10.52;72.28;100851.66;4951725;28;97611;-76
2021/10/18 01:19:10;;;;;;;20.95;14.85;;;;;;;10.51;72.54;100860.44;4952849;28;96695;-76
2021/10/18 01:21:37;;;;;;;15.88;14.13;;;;;;;10.52;72.42;100855.13;4935341;28;98374;-76
2021/10/18 01:24:02;;;;;;;23.20;16.10;;;;;;;10.45;72.45;100843.06;4951673;28;97725;-76
2021/10/18 01:26:28;;;;;;;17.67;14.35;;;;;;;10.51;72.63;100856.03;4951506;28;97479;-76
2021/10/18 01:28:53;;;;;;;17.33;14.65;;;;;;;10.52;72.40;100857.75;4936327;28;96943;-76
2021/10/18 01:31:19;;;;;;;18.55;14.63;;;;;;;10.53;72.69;100849.00;4935465;28;96902;-76
2021/10/18 01:33:44;;;;;;;19.65;14.60;;;;;;;10.52;72.84;100856.91;4951023;28;98274;-76
2021/10/18 01:36:10;;;;;;;19.98;14.27;;;;;;;10.49;73.14;100849.97;4951870;28;98437;-76
2021/10/18 01:38:35;;;;;;;16.38;14.35;;;;;;;10.46;73.21;100860.53;4951378;28;96963;-76
2021/10/18 01:41:01;;;;;;;17.63;14.95;;;;;;;10.46;73.31;100857.06;4953630;28;96871;-76
2021/10/18 01:43:26;;;;;;;15.98;14.27;;;;;;;10.46;73.43;100855.28;4951126;28;97655;-76
2021/10/18 01:45:52;;;;;;;20.35;14.48;;;;;;;10.48;73.07;100861.38;4951281;28;101738;-76
2021/10/18 01:48:17;;;;;;;16.10;14.52;;;;;;;10.50;72.94;100861.31;4935687;28;97252;-76
2021/10/18 01:50:43;;;;;;;16.92;15.18;;;;;;;10.44;73.15;100859.72;4951294;28;96959;-76
2021/10/18 01:53:08;;;;;;;21.02;14.52;;;;;;;10.42;73.25;100857.13;4967770;28;97566;-76
2021/10/18 01:55:34;;;;;;;18.20;14.68;;;;;;;10.52;73.33;100862.16;4951363;28;98058;-76
2021/10/18 01:58:00;;;;;;;19.42;15.55;;;;;;;10.50;72.97;100866.56;4930157;28;97158;-76
2021/10/18 02:00:25;;;;;;;18.00;15.32;;;;;;;10.47;73.29;100861.41;4931320;28;96953;-77
2021/10/18 02:02:51;;;;;;;20.70;15.10;;;;;;;10.44;73.52;100857.09;4941163;28;100484;-76
2021/10/18 02:05:17;;;;;;;18.90;15.32;;;;;;;10.39;73.85;100859.84;4984804;28;97630;-77
2021/10/18 02:07:43;;;;;;;16.98;14.52;;;;;;;10.42;73.34;100856.28;4951380;28;97946;-76
2021/10/18 02:10:09;;;;;;;16.90;14.90;;;;;;;10.42;73.69;100866.78;4919338;28;97104;-76
2021/10/18 02:12:34;;;;;;;15.15;13.60;;;;;;;10.37;73.77;100856.38;4950857;28;97659;-76
2021/10/18 02:15:00;;;;;;;18.63;14.40;;;;;;;10.35;73.74;100863.41;4916317;28;100819;-76
2021/10/18 02:17:25;;;;;;;15.43;13.88;;;;;;;10.41;73.50;100860.66;4919027;28;96789;-76
2021/10/18 02:19:52;;;;;;;14.75;13.35;;;;;;;10.47;73.45;100859.66;4935324;28;97072;-76
2021/10/18 02:22:18;;;;;;;15.35;13.15;;;;;;;10.48;73.24;100858.75;4934508;28;101662;-76
2021/10/18 02:24:43;;;;;;;14.45;13.00;;;;;;;10.51;73.11;100855.19;4965358;28;100889;-76
2021/10/18 02:27:09;;;;;;;15.88;13.60;;;;;;;10.46;73.51;100862.31;4950760;28;97264;-76
2021/10/18 02:29:35;;;;;;;15.45;13.85;;;;;;;10.37;73.78;100855.53;4950809;28;96949;-76
2021/10/18 02:32:00;;;;;;;15.50;13.15;;;;;;;10.35;73.83;100855.53;4950033;28;101253;-76
2021/10/18 02:34:26;;;;;;;14.55;12.82;;;;;;;10.34;73.73;100853.84;4933977;28;101068;-76
2021/10/18 02:36:51;;;;;;;15.00;13.40;;;;;;;10.39;73.40;100865.09;4967126;28;96679;-76
2021/10/18 02:39:17;;;;;;;16.23;13.30;;;;;;;10.35;73.96;100855.53;4959172;28;98486;-76
2021/10/18 02:41:42;;;;;;;15.32;13.23;;;;;;;10.38;73.49;100859.88;4950308;28;97546;-76
2021/10/18 02:44:08;;;;;;;14.77;13.38;;;;;;;10.31;73.22;100850.44;4951067;28;97742;-76
2021/10/18 02:46:33;;;;;;;13.73;12.43;;;;;;;10.39;73.29;100864.22;4950255;28;96709;-76
2021/10/18 02:48:59;;;;;;;18.23;13.98;;;;;;;10.43;73.05;100863.25;4951541;28;96992;-76
2021/10/18 02:51:25;;;;;;;15.85;13.05;;;;;;;10.35;73.39;100860.78;4950264;28;101671;-76
2021/10/18 02:53:50;;;;;;;18.15;13.75;;;;;;;10.32;73.54;100860.00;4949633;28;100919;-76
2021/10/18 02:56:16;;;;;;;15.82;13.68;;;;;;;10.32;73.92;100860.88;4952134;28;96917;-76
2021/10/18 02:58:41;;;;;;;15.93;14.25;;;;;;;10.33;73.37;100859.13;4934000;28;96890;-76
2021/10/18 03:01:07;;;;;;;17.15;13.50;;;;;;;10.36;73.56;100862.53;4967039;28;100893;-76
2021/10/18 03:03:33;;;;;;;15.10;13.65;;;;;;;10.31;73.43;100853.91;4924969;28;98182;-76
2021/10/18 03:05:58;;;;;;;15.68;13.90;;;;;;;10.29;73.56;100852.22;4934611;28;96921;-76
2021/10/18 03:08:24;;;;;;;16.67;13.68;;;;;;;10.34;73.68;100866.09;4947307;28;97030;-77
2021/10/18 03:10:49;;;;;;;15.50;13.15;;;;;;;10.30;73.98;100872.34;4950067;28;98235;-76
2021/10/18 03:13:16;;;;;;;15.43;13.68;;;;;;;10.31;73.86;100869.66;4933736;28;101097;-76
2021/10/18 03:15:41;;;;;;;14.82;13.30;;;;;;;10.28;74.10;100866.25;4949627;28;98434;-76
2021/10/18 03:18:07;;;;;;;15.15;13.60;;;;;;;10.25;74.16;100872.41;4983913;28;96757;-76
2021/10/18 03:20:33;;;;;;;14.68;13.23;;;;;;;10.30;73.97;100870.56;4933521;28;101263;-76
2021/10/18 03:22:58;;;;;;;15.65;13.00;;;;;;;10.30;73.83;100872.34;4933558;28;101361;-77
2021/10/18 03:25:24;;;;;;;14.45;13.15;;;;;;;10.32;74.20;100881.88;4934216;28;97045;-76
2021/10/18 03:27:50;;;;;;;17.55;15.10;;;;;;;10.31;73.99;100880.16;4949906;28;97509;-76
2021/10/18 03:30:15;;;;;;;15.23;13.23;;;;;;;10.31;74.32;100882.78;4917317;28;100949;-76
2021/10/18 03:32:41;;;;;;;16.15;14.15;;;;;;;10.27;74.31;100875.00;4933606;28;97381;-76
2021/10/18 03:35:07;;;;;;;16.23;13.27;;;;;;;10.32;74.23;100876.63;4950438;28;97121;-76
2021/10/18 03:37:33;;;;;;;14.85;13.30;;;;;;;10.37;73.45;100894.88;4966481;28;97188;-76
2021/10/18 03:39:59;;;;;;;15.35;13.20;;;;;;;10.31;74.08;100892.41;4933155;28;101385;-76
2021/10/18 03:42:25;;;;;;;15.55;14.00;;;;;;;10.30;73.81;100894.19;4933805;28;98124;-76
2021/10/18 03:44:50;;;;;;;16.90;14.13;;;;;;;10.24;74.01;100888.16;4965971;28;96739;-76
2021/10/18 03:47:16;;;;;;;18.15;14.18;;;;;;;10.23;74.07;100886.44;4936700;28;96906;-76
2021/10/18 03:49:41;;;;;;;16.33;14.60;;;;;;;10.25;74.03;100893.38;4936112;28;97889;-77
2021/10/18 03:52:07;;;;;;;16.33;14.55;;;;;;;10.23;74.19;100892.56;4953209;28;101100;-76
2021/10/18 03:54:32;;;;;;;16.30;14.60;;;;;;;10.20;74.22;100895.25;4936792;28;96867;-76
2021/10/18 03:56:58;;;;;;;17.42;15.63;;;;;;;10.24;74.21;100902.16;4937048;28;96917;-76
2021/10/18 03:59:24;;;;;;;17.67;15.77;;;;;;;10.26;74.62;100900.34;4937264;28;97549;-76
2021/10/18 04:01:50;;;;;;;16.88;15.15;;;;;;;10.28;74.28;100903.00;4935948;28;98149;-76
2021/10/18 04:04:16;;;;;;;23.70;16.65;;;;;;;10.29;73.86;100896.81;4935992;28;97942;-76
2021/10/18 04:06:42;;;;;;;17.55;15.43;;;;;;;10.33;73.94;100903.75;4960334;28;97060;-77
2021/10/18 04:09:08;;;;;;;20.00;15.98;;;;;;;10.25;74.21;100908.28;4952571;28;98097;-76
2021/10/18 04:11:39;;;;;;;18.05;15.75;;;;;;;10.25;74.25;100917.00;4951608;28;98515;-76
2021/10/18 04:14:05;;;;;;;16.65;14.68;;;;;;;10.18;74.35;100908.41;4968929;28;97355;-76
2021/10/18 04:16:31;;;;;;;16.80;15.05;;;;;;;10.22;74.09;100901.34;4952076;28;97252;-75
2021/10/18 04:18:57;;;;;;;19.10;15.20;;;;;;;10.29;73.84;100912.56;4935967;28;99799;-76
2021/10/18 04:21:23;;;;;;;18.08;15.98;;;;;;;10.29;74.17;100920.44;4952854;28;97857;-76
2021/10/18 04:23:49;;;;;;;17.77;16.17;;;;;;;10.31;74.17;100923.91;4934749;28;97282;-76
2021/10/18 04:26:14;;;;;;;18.73;16.83;;;;;;;10.28;74.13;100929.22;4920056;28;96895;-77
2021/10/18 04:28:40;;;;;;;17.30;15.77;;;;;;;10.30;74.16;100932.69;4950408;28;102635;-76
2021/10/18 04:31:05;;;;;;;17.73;15.93;;;;;;;10.28;74.44;100926.59;4968940;28;101150;-77
2021/10/18 04:33:31;;;;;;;18.95;16.70;;;;;;;10.26;74.54;100920.47;4984714;28;96692;-76
2021/10/18 04:35:56;;;;;;;18.73;15.73;;;;;;;10.31;74.16;100926.53;4951697;28;96820;-76
2021/10/18 04:38:22;;;;;;;17.05;15.15;;;;;;;10.31;74.07;100929.16;4967700;28;97785;-76
2021/10/18 04:40:47;;;;;;;17.38;15.63;;;;;;;10.31;74.07;100935.25;4934517;28;101776;-76
2021/10/18 04:43:13;;;;;;;18.23;16.27;;;;;;;10.22;74.09;100932.81;4968911;28;97250;-77
2021/10/18 04:45:38;;;;;;;21.67;16.98;;;;;;;10.24;74.57;100936.28;4951838;28;96809;-76
2021/10/18 04:48:04;;;;;;;18.40;16.60;;;;;;;10.27;74.79;100937.97;4935678;28;101403;-77
2021/10/18 04:50:30;;;;;;;18.52;16.75;;;;;;;10.24;74.17;100924.91;4928990;28;101269;-76
2021/10/18 04:52:55;;;;;;;17.67;15.98;;;;;;;10.26;74.65;100931.84;4979292;28;96895;-76
2021/10/18 04:55:21;;;;;;;20.67;16.80;;;;;;;10.22;74.42;100937.22;4950660;28;96963;-77
2021/10/18 04:57:58;;;;;;;17.60;15.93;;;;;;;10.26;74.62;100934.47;4958366;28;97418;-77
2021/10/18 05:00:26;;;;;;;18.83;16.83;;;;;;;10.28;74.42;100951.06;4970605;28;98353;-77
2021/10/18 05:02:51;;;;;;;20.83;17.65;;;;;;;10.32;74.58;100946.63;4948802;28;96821;-78
2021/10/18 05:05:18;;;;;;;20.25;17.10;;;;;;;10.22;74.59;100938.06;4965144;28;96984;-78
2021/10/18 05:07:44;;;;;;;18.73;14.68;;;;;;;10.32;74.24;100949.25;4915020;28;101233;-77
2021/10/18 05:10:13;;;;;;;17.05;14.57;;;;;;;10.32;74.31;100944.00;4969294;28;97788;-77
2021/10/18 05:12:40;;;;;;;19.08;16.23;;;;;;;10.28;74.60;100950.22;4951345;28;96779;-77
2021/10/18 05:15:07;;;;;;;18.20;16.10;;;;;;;10.26;74.61;100949.34;4935856;28;97096;-76
2021/10/18 05:17:32;;;;;;;17.58;15.93;;;;;;;10.26;74.59;100959.84;4935264;28;101058;-80
2021/10/18 05:19:58;;;;;;;18.27;16.23;;;;;;;10.24;74.70;100961.63;4951838;28;100873;-86
2021/10/18 05:22:23;;;;;;;18.10;16.13;;;;;;;10.23;74.73;100962.53;4933560;28;97225;-79
2021/10/18 05:24:49;;;;;;;18.80;16.63;;;;;;;10.26;74.68;100968.56;4956896;28;96958;-79
2021/10/18 05:27:15;;;;;;;15.57;11.50;;;;;;;10.29;74.48;100972.94;4951403;28;101544;-80
2021/10/18 05:29:40;;;;;;;18.67;12.25;;;;;;;10.26;74.28;100971.19;4962825;28;97862;-78
2021/10/18 05:32:06;;;;;;;15.60;11.45;;;;;;;10.28;74.32;100979.09;4963386;28;98433;-78
2021/10/18 05:34:32;;;;;;;18.55;12.50;;;;;;;10.28;74.52;100985.19;4952225;28;97434;-79
2021/10/18 05:36:57;;;;;;;14.60;11.52;;;;;;;10.30;74.42;100993.03;4942492;28;98203;-79
2021/10/18 05:39:23;;;;;;;20.50;12.55;;;;;;;10.29;74.51;100992.16;4929471;28;101064;-83
2021/10/18 05:41:48;;;;;;;15.38;11.30;;;;;;;10.30;74.29;100991.28;4929988;28;97026;-81
2021/10/18 05:44:14;;;;;;;18.02;11.77;;;;;;;10.30;74.03;100982.53;4965466;28;97251;-86
2021/10/18 05:46:39;;;;;;;13.35;10.90;;;;;;;10.40;73.93;101005.91;4933443;28;101743;-79
2021/10/18 05:49:05;;;;;;;14.30;10.45;;;;;;;10.32;73.96;100999.94;4947679;28;101051;-79
2021/10/18 05:51:31;;;;;;;14.35;11.65;;;;;;;10.36;74.27;101014.75;4961518;28;97151;-79
2021/10/18 05:53:58;;;;;;;13.38;11.50;;;;;;;10.37;74.08;101013.84;4914351;28;97619;-77
2021/10/18 05:56:23;;;;;;;19.08;11.90;;;;;;;10.36;73.96;101016.53;4959682;28;98998;-79
2021/10/18 05:58:49;;;;;;;16.80;11.20;;;;;;;10.41;74.16;101027.75;4953499;28;97783;-80
2021/10/18 06:01:14;;;;;;;20.33;11.57;;;;;;;10.38;74.28;101022.56;4928004;28;96783;-80
2021/10/18 06:03:41;;;;;;;13.80;11.30;;;;;;;10.35;74.26;101026.13;4959037;28;97013;-78
2021/10/18 06:06:08;;;;;;;13.88;11.32;;;;;;;10.33;74.62;101025.31;4931458;28;97724;-78
2021/10/18 06:08:34;;;;;;;18.17;11.98;;;;;;;10.36;74.59;101032.28;4932848;28;101639;-77
2021/10/18 06:11:00;;;;;;;19.95;12.95;;;;;;;10.25;74.76;101018.47;4932663;28;96904;-78
2021/10/18 06:13:26;;;;;;;18.63;12.32;;;;;;;10.36;74.63;101032.28;4982131;28;97209;-77
2021/10/18 06:15:53;;;;;;;20.35;12.75;;;;;;;10.38;73.89;101015.59;4932628;28;101245;-78
2021/10/18 06:18:19;;;;;;;16.58;12.90;;;;;;;10.38;73.89;101022.56;4940672;28;98078;-78
2021/10/18 06:20:53;;;;;;;14.98;12.30;;;;;;;10.39;73.81;101030.44;4945014;28;97983;-78
2021/10/18 06:23:20;;;;;;;17.48;11.93;;;;;;;10.48;73.70;101042.50;4943685;28;98181;-79
2021/10/18 06:25:46;;;;;;;16.75;11.68;;;;;;;10.48;73.67;101041.63;4943672;28;101308;-78
2021/10/18 06:28:12;;;;;;;15.60;13.05;;;;;;;10.40;73.63;101039.16;4975771;28;97411;-78
2021/10/18 06:30:38;;;;;;;13.50;12.10;;;;;;;10.41;73.73;101041.78;4930226;28;97504;-77
2021/10/18 06:33:04;;;;;;;14.85;11.45;;;;;;;10.43;73.94;101050.44;4969213;28;97296;-78
2021/10/18 06:35:33;;;;;;;14.43;12.60;;;;;;;10.51;73.72;101057.31;4932193;28;102427;-76
2021/10/18 06:37:59;;;;;;;17.75;12.60;;;;;;;10.53;73.76;101055.50;4954174;28;98966;-78
2021/10/18 06:40:26;;;;;;;17.27;12.38;;;;;;;10.52;73.61;101049.38;4949905;28;97171;-80
2021/10/18 06:42:51;;;;;;;18.83;13.02;;;;;;;10.52;73.77;101059.03;4961984;28;97118;-78
2021/10/18 06:45:17;;;;;;;14.15;11.98;;;;;;;10.55;73.62;101062.44;4974755;28;101173;-80
2021/10/18 06:47:42;;;;;;;18.20;12.98;;;;;;;10.55;73.38;101069.47;4944592;28;97415;-84
2021/10/18 06:50:09;;;;;;;19.45;13.25;;;;;;;10.56;73.52;101079.94;4951403;28;97336;-83
2021/10/18 06:52:38;;;;;;;17.65;12.82;;;;;;;10.50;73.94;101074.84;4950042;28;96994;-93
2021/10/18 06:55:05;;;;;;;18.73;12.60;;;;;;;10.51;73.68;101071.28;4956330;28;101598;-77
2021/10/18 06:57:32;;;;;;;16.95;12.63;;;;;;;10.50;74.06;101082.69;4954741;28;101409;-77
2021/10/18 06:59:58;;;;;;;17.23;13.07;;;;;;;10.55;73.76;101082.59;4937899;28;96952;-77
2021/10/18 07:02:24;;;;;;;15.45;11.95;;;;;;;10.58;73.49;101083.38;4947565;28;97393;-77
2021/10/18 07:04:50;;;;;;;16.88;12.52;;;;;;;10.69;73.15;101092.78;4973843;28;101438;-80
2021/10/18 07:07:15;;;;;;;16.27;13.10;;;;;;;10.67;72.91;101086.69;4956500;28;101655;-79
2021/10/18 07:09:42;;;;;;;14.27;12.80;;;;;;;10.64;73.33;101088.50;4952904;28;97277;-80
2021/10/18 07:12:11;;;;;;;16.30;12.05;;;;;;;10.69;73.11;101103.28;4942544;28;97243;-82
2021/10/18 07:14:37;;;;;;;15.75;12.15;;;;;;;10.72;72.96;101103.22;4954765;28;100773;-82
2021/10/18 07:17:03;;;;;;;16.00;12.88;;;;;;;10.70;73.22;101103.25;4955907;28;101478;-78
2021/10/18 07:19:28;;;;;;;13.98;12.27;;;;;;;10.71;73.46;101098.88;4967241;28;97074;-76
2021/10/18 07:21:54;;;;;;;20.02;12.20;;;;;;;10.75;73.00;101095.28;4963489;28;97262;-81
2021/10/18 07:24:20;;;;;;;17.85;11.75;;;;;;;10.72;72.38;101095.34;4934512;28;101465;-82
2021/10/18 07:26:50;;;;;;;13.35;11.27;;;;;;;10.79;72.66;101094.28;4968130;28;97951;-84
2021/10/18 07:29:21;;;;;;;13.57;11.18;;;;;;;10.94;72.60;101108.84;4954088;28;96827;-81
2021/10/18 07:31:47;;;;;;;15.98;11.65;;;;;;;10.88;72.36;101097.59;4941126;28;98093;-80
2021/10/18 07:34:17;;;;;;;16.58;10.65;;;;;;;10.88;72.43;101104.63;4953062;28;101081;-80
2021/10/18 07:36:50;;;;;;;16.13;10.77;;;;;;;10.92;72.06;101101.00;4938347;28;101305;-81
2021/10/18 07:39:17;;;;;;;13.35;11.25;;;;;;;10.95;72.40;101106.19;4939333;28;97199;-81
2021/10/18 07:41:43;;;;;;;12.38;10.27;;;;;;;10.98;72.02;101103.50;4969345;28;96971;-81
2021/10/18 07:44:10;;;;;;;13.13;10.90;;;;;;;10.99;71.92;101112.22;4951752;28;101079;-82
2021/10/18 07:46:35;;;;;;;18.50;11.27;;;;;;;11.05;71.96;101117.34;4967748;28;101825;-83
2021/10/18 07:49:02;;;;;;;12.50;10.00;;;;;;;11.07;71.95;101112.94;4937226;28;97165;-81
2021/10/18 07:51:28;;;;;;;14.70;10.68;;;;;;;11.07;71.93;101118.19;4959774;28;97369;-82
2021/10/18 07:53:56;;;;;;;12.13;10.82;;;;;;;11.06;71.91;101104.19;4961846;28;97573;-82
2021/10/18 07:56:22;;;;;;;11.15;10.07;;;;;;;11.10;71.71;101120.72;4931608;28;97572;-83
2021/10/18 07:58:48;;;;;;;12.85;10.10;;;;;;;11.12;71.75;101111.06;4916778;28;97333;-83
2021/10/18 08:01:13;;;;;;;12.70;10.60;;;;;;;11.21;71.30;101120.50;4963649;28;96894;-83
2021/10/18 08:03:39;;;;;;;15.45;10.70;;;;;;;11.13;71.22;101109.28;4932995;28;101236;-82
2021/10/18 08:06:04;;;;;;;14.07;10.45;;;;;;;11.13;71.32;101128.53;4950379;28;101447;-83
2021/10/18 08:08:31;;;;;;;15.45;9.82;;;;;;;11.09;70.99;101125.13;4935386;28;96756;-83
2021/10/18 08:10:57;;;;;;;13.93;10.27;;;;;;;11.09;71.73;101122.50;4962126;28;97362;-83
2021/10/18 08:13:23;;;;;;;10.82;9.30;;;;;;;11.12;71.25;101125.97;4966209;28;101668;-83
2021/10/18 08:15:48;;;;;;;18.02;11.93;;;;;;;11.17;71.10;101126.69;4971367;28;97629;-79
2021/10/18 08:18:14;;;;;;;13.65;10.20;;;;;;;11.19;71.55;101138.03;4935992;28;97255;-79
2021/10/18 08:20:42;;;;;;;12.88;10.40;;;;;;;11.25;71.07;101138.75;4971141;28;97041;-84
2021/10/18 08:23:08;;;;;;;13.15;10.32;;;;;;;11.29;71.10;101131.69;4955246;28;97529;-83
2021/10/18 08:25:33;;;;;;;18.33;12.02;;;;;;;11.33;71.00;101138.59;4942293;28;101166;-81
2021/10/18 08:27:59;;;;;;;12.63;9.48;;;;;;;11.34;71.06;101137.66;4939559;28;97359;-81
2021/10/18 08:30:25;;;;;;;13.98;10.38;;;;;;;11.28;71.30;101128.16;4928610;28;97190;-80
2021/10/18 08:32:50;;;;;;;17.40;10.07;;;;;;;11.30;71.23;101129.00;4926379;28;97904;-79
2021/10/18 08:35:16;;;;;;;13.48;9.55;;;;;;;11.35;71.15;101128.03;4967724;28;98109;-80
2021/10/18 08:40:30;;;;;;;13.20;9.68;;;;;;;11.45;70.79;101140.91;4973958;28;97648;-82
2021/10/18 08:43:03;;;;;;;13.05;9.27;;;;;;;11.42;70.63;101151.50;4979046;28;101840;-79
2021/10/18 08:45:29;;;;;;;12.98;9.75;;;;;;;11.39;71.09;101151.56;4951705;28;100944;-79
2021/10/18 08:47:55;;;;;;;10.55;8.98;;;;;;;11.40;70.78;101157.69;4948294;28;97404;-79
2021/10/18 08:50:25;;;;;;;14.27;9.82;;;;;;;11.35;70.81;101155.19;4945409;28;98059;-79
2021/10/18 08:52:51;;;;;;;17.05;8.40;;;;;;;11.32;71.15;101160.53;4982785;28;97716;-81
2021/10/18 08:55:16;;;;;;;18.38;10.80;;;;;;;11.35;71.36;101160.44;4947022;28;101297;-79
2021/10/18 08:57:42;;;;;;;17.63;9.75;;;;;;;11.45;71.26;101163.72;4953767;28;97254;-81
2021/10/18 09:00:48;;;;;;;18.98;9.40;;;;;;;11.46;70.83;101166.31;4945731;28;97292;-83
2021/10/18 09:03:23;;;;;;;16.02;9.23;;;;;;;11.47;71.04;101167.19;4963956;28;101861;-79
2021/10/18 09:05:50;;;;;;;12.00;8.65;;;;;;;11.48;70.81;101171.53;4934522;28;101454;-81
2021/10/18 09:08:35;;;;;;;14.80;10.35;;;;;;;11.48;70.66;101167.13;4962668;28;96954;-82
2021/10/18 09:11:16;;;;;;;11.90;9.43;;;;;;;11.53;70.27;101170.50;4966829;28;97191;-81
2021/10/18 09:13:45;;;;;;;13.52;9.27;;;;;;;11.47;70.52;101170.66;4951070;28;101590;-82
2021/10/18 09:16:11;;;;;;;13.63;9.43;;;;;;;11.54;70.34;101174.00;4952194;28;97998;-82
2021/10/18 09:18:39;;;;;;;14.57;8.77;;;;;;;11.54;70.19;101164.34;4954002;28;97213;-79
2021/10/18 09:21:04;;;;;;;14.57;8.75;;;;;;;11.62;69.93;101165.94;4968884;28;96988;-80
2021/10/18 09:26:12;;;;;;;17.95;8.65;;;;;;;11.67;69.73;101164.91;4961138;28;101045;-80
2021/10/18 09:28:39;;;;;;;17.60;8.18;;;;;;;11.70;70.29;101163.97;4949344;28;97059;-82
2021/10/18 09:31:05;;;;;;;14.77;8.13;;;;;;;11.77;69.57;101166.41;4955532;28;96943;-82
2021/10/18 09:33:40;;;;;;;14.80;7.85;;;;;;;11.82;69.20;101149.66;4937988;28;100750;-81
2021/10/18 09:36:10;;;;;;;9.32;8.15;;;;;;;11.91;68.69;101152.94;4951250;28;97521;-82
2021/10/18 09:38:36;;;;;;;14.82;8.40;;;;;;;11.99;68.82;101166.75;4952314;28;99805;-82
2021/10/18 09:41:03;;;;;;;15.88;8.45;;;;;;;11.97;68.17;101154.53;4942249;28;97720;-81
2021/10/18 09:43:38;;;;;;;11.77;8.10;;;;;;;12.04;68.18;101166.59;4948354;28;101281;-81
2021/10/18 09:46:25;;;;;;;9.95;7.55;;;;;;;12.07;68.50;101169.19;4952205;28;98396;-81
2021/10/18 10:51:35;;;;;;;7.38;6.68;;;;;;;12.44;65.59;101157.63;4950820;28;101297;-82
2021/10/18 10:54:03;;;;;;;9.88;8.63;;;;;;;12.53;65.47;101162.63;4951641;28;102641;-80
2021/10/18 10:56:32;;;;;;;9.25;6.85;;;;;;;12.55;66.52;101159.97;4971010;28;96953;-77
2021/10/18 10:59:24;;;;;;;12.43;7.20;;;;;;;12.65;65.58;101166.66;4966295;28;97070;-84
2021/10/18 11:01:52;;;;;;;14.73;7.80;;;;;;;12.60;65.60;101168.59;4950867;28;101400;-82
2021/10/18 11:04:30;;;;;;;9.13;6.45;;;;;;;12.59;64.98;101165.06;4939698;28;101636;-85
2021/10/18 11:06:56;;;;;;;10.60;8.32;;;;;;;12.59;65.48;101166.84;4966449;28;97164;-83
2021/10/18 11:09:46;;;;;;;10.75;8.27;;;;;;;12.60;64.94;101172.09;4953104;28;97291;-82
2021/10/18 11:12:35;;;;;;;9.60;7.78;;;;;;;12.60;65.42;101174.72;4950011;28;98468;-83
2021/10/18 11:15:13;;;;;;;9.23;6.82;;;;;;;12.61;65.27;101165.91;4932518;28;101855;-84
2021/10/18 11:17:44;;;;;;;9.07;6.95;;;;;;;12.69;64.96;101173.59;4987388;28;97720;-83
2021/10/18 11:20:21;;;;;;;7.93;6.20;;;;;;;12.73;65.19;101171.72;4948460;28;97266;-83
2021/10/18 11:22:52;;;;;;;14.77;7.53;;;;;;;12.71;65.08;101158.59;4937406;28;101274;-83
2021/10/18 11:25:20;;;;;;;7.90;7.10;;;;;;;12.75;64.55;101162.00;4931274;28;101230;-82
2021/10/18 11:27:51;;;;;;;9.95;7.03;;;;;;;12.88;64.45;101164.22;4933230;28;96844;-83
2021/10/18 11:30:18;;;;;;;12.53;7.03;;;;;;;12.91;64.57;101156.25;4957166;28;97167;-83
2021/10/18 11:32:57;;;;;;;13.73;6.85;;;;;;;12.87;65.12;101159.00;4968195;28;101646;-87
2021/10/18 11:35:23;;;;;;;15.10;8.60;;;;;;;12.98;65.36;101154.28;4955299;28;101665;-83
2021/10/18 11:37:53;;;;;;;12.65;7.53;;;;;;;13.02;64.76;101152.41;4951891;28;97513;-84
2021/10/18 11:40:22;;;;;;;12.23;7.80;;;;;;;13.06;64.82;101154.00;4968301;28;96836;-84
2021/10/18 11:43:09;;;;;;;14.27;7.60;;;;;;;13.10;64.80;101151.25;4937568;28;98589;-84
2021/10/18 11:45:40;;;;;;;11.65;7.35;;;;;;;13.20;64.74;101154.44;4938970;28;101382;-84
2021/10/18 11:48:12;;;;;;;14.45;7.90;;;;;;;13.25;64.86;101143.78;4957220;28;96846;-88
2021/10/18 11:50:39;;;;;;;10.25;6.97;;;;;;;13.29;64.17;101146.31;4966226;28;97692;-91
2021/10/18 11:53:18;;;;;;;8.93;6.60;;;;;;;13.34;63.97;101135.59;4965564;28;101093;-90
2021/10/18 11:55:48;;;;;;;8.27;6.85;;;;;;;13.34;64.18;101128.53;4958374;28;101344;-92
2021/10/18 11:58:17;;;;;;;10.38;6.63;;;;;;;13.30;63.40;101126.94;4949740;28;97277;-91
2021/10/18 12:00:42;;;;;;;10.07;7.93;;;;;;;13.35;63.31;101135.56;4959712;28;96829;-92
2021/10/18 12:03:09;;;;;;;10.50;7.85;;;;;;;13.42;62.85;101136.22;4954566;28;101876;-91
2021/10/18 12:05:36;;;;;;;9.63;7.55;;;;;;;13.40;62.87;101122.19;4952253;28;101095;-91
2021/10/18 12:08:04;;;;;;;10.60;8.95;;;;;;;13.44;62.88;101125.59;4949065;28;97215;-91
2021/10/18 12:10:31;;;;;;;13.20;9.10;;;;;;;13.42;62.78;101120.38;4971781;28;96844;-90
2021/10/18 12:13:23;;;;;;;10.32;8.85;;;;;;;13.44;62.19;101126.47;4962741;28;100083;-91
2021/10/18 12:15:54;;;;;;;13.02;10.10;;;;;;;13.49;62.69;101129.81;4944580;28;101380;-90
2021/10/18 12:18:45;;;;;;;10.27;9.15;;;;;;;13.52;61.35;101123.56;4968581;28;98244;-91